createdAt,value
2022-09-18T00:01:46.586Z,17.98
2022-09-18T00:08:32.197Z,17.97
2022-09-18T00:15:17.642Z,17.98
2022-09-18T00:22:05.588Z,17.94
2022-09-18T00:28:51.158Z,17.96
2022-09-18T00:35:36.585Z,17.95
2022-09-18T00:42:24.832Z,17.93
2022-09-18T00:49:17.129Z,17.96
2022-09-18T00:56:04.564Z,17.99
2022-09-18T01:02:53.367Z,17.98
2022-09-18T01:09:48.683Z,17.96
2022-09-18T01:16:46.079Z,17.96
2022-09-18T01:24:09.567Z,18.20
2022-09-18T01:31:07.978Z,17.56
2022-09-18T01:37:58.840Z,17.24
2022-09-18T01:44:47.944Z,17.58
2022-09-18T01:51:42.138Z,17.35
2022-09-18T01:58:31.278Z,17.32
2022-09-18T02:05:24.606Z,17.23
2022-09-18T02:12:18.157Z,17.26
2022-09-18T02:19:12.451Z,17.37
2022-09-18T02:26:04.397Z,17.51
2022-09-18T02:32:57.300Z,17.44
2022-09-18T02:39:56.014Z,17.51
2022-09-18T03:00:36.361Z,16.65
2022-09-18T03:07:29.199Z,16.63
2022-09-18T03:14:17.884Z,16.39
2022-09-18T03:21:07.217Z,16.12
2022-09-18T03:27:56.295Z,15.91
2022-09-18T03:34:50.108Z,15.74
2022-09-18T03:41:38.238Z,15.59
2022-09-18T03:48:25.820Z,15.54
2022-09-18T03:55:12.754Z,15.47
2022-09-18T04:02:16.246Z,15.40
2022-09-18T04:09:24.513Z,15.34
2022-09-18T04:16:12.474Z,15.31
2022-09-18T04:23:00.725Z,15.32
2022-09-18T04:29:46.192Z,15.34
2022-09-18T04:36:33.857Z,15.31
2022-09-18T04:43:21.864Z,15.32
2022-09-18T04:50:08.851Z,14.91
2022-09-18T04:56:54.421Z,15.31
2022-09-18T05:03:42.833Z,15.36
2022-09-18T05:10:35.320Z,15.37
2022-09-18T05:17:22.681Z,15.37
2022-09-18T05:24:20.661Z,15.31
2022-09-18T05:31:08.599Z,15.29
2022-09-18T05:38:02.004Z,15.21
2022-09-18T05:44:51.604Z,15.16
2022-09-18T05:51:44.698Z,15.21
2022-09-18T05:58:31.166Z,15.37
2022-09-18T06:05:19.269Z,15.54
2022-09-18T06:12:05.313Z,15.64
2022-09-18T06:18:53.681Z,15.80
2022-09-18T06:25:42.992Z,15.80
2022-09-18T06:32:28.583Z,15.94
2022-09-18T06:39:14.541Z,16.18
2022-09-18T06:46:04.484Z,16.40
2022-09-18T06:52:56.464Z,16.62
2022-09-18T06:59:42.205Z,16.90
2022-09-18T07:06:30.589Z,17.15
2022-09-18T07:13:16.240Z,17.33
2022-09-18T07:20:04.924Z,17.45
2022-09-18T07:27:02.527Z,17.56
2022-09-18T07:33:47.952Z,17.73
2022-09-18T07:40:37.725Z,17.83
2022-09-18T07:47:28.970Z,17.80
2022-09-18T07:54:18.837Z,17.79
2022-09-18T08:01:19.285Z,17.83
2022-09-18T08:08:17.056Z,17.86
2022-09-18T08:15:19.420Z,17.98
2022-09-18T08:22:27.813Z,18.08
2022-09-18T08:29:19.323Z,17.99
2022-09-18T08:36:21.236Z,18.06
2022-09-18T08:43:30.504Z,18.04
2022-09-18T08:50:24.389Z,17.80
2022-09-18T08:57:22.662Z,18.05
2022-09-18T09:04:28.539Z,18.08
2022-09-18T09:11:29.237Z,17.80
2022-09-18T09:18:21.201Z,18.10
2022-09-18T09:25:22.707Z,18.29
2022-09-18T09:32:37.672Z,18.27
2022-09-18T09:39:43.149Z,18.31
2022-09-18T09:46:57.895Z,18.37
2022-09-18T09:53:46.473Z,18.43
2022-09-18T10:00:38.320Z,18.50
2022-09-18T10:07:34.404Z,18.57
2022-09-18T10:14:29.385Z,18.40
2022-09-18T10:21:19.593Z,18.31
2022-09-18T10:28:06.233Z,18.35
2022-09-18T10:34:54.359Z,17.98
2022-09-18T10:41:43.204Z,18.43
2022-09-18T10:48:30.507Z,18.42
2022-09-18T10:55:23.493Z,18.40
2022-09-18T11:02:21.826Z,18.51
2022-09-18T11:09:13.579Z,18.40
2022-09-18T11:16:07.532Z,18.23
2022-09-18T11:22:53.749Z,17.95
2022-09-18T11:29:51.458Z,18.37
2022-09-18T11:36:41.072Z,18.36
2022-09-18T11:43:29.868Z,18.39
2022-09-18T11:50:21.867Z,18.07
2022-09-18T11:57:20.676Z,18.37
2022-09-18T12:04:16.301Z,18.40
2022-09-18T12:11:15.242Z,18.28
2022-09-18T12:18:11.277Z,18.14
2022-09-18T12:24:58.948Z,18.81
2022-09-18T12:32:23.232Z,19.04
2022-09-18T12:39:39.272Z,19.07
2022-09-18T12:46:50.495Z,19.06
2022-09-18T12:53:56.441Z,18.76
2022-09-18T13:00:49.497Z,18.96
2022-09-18T13:07:40.169Z,18.99
2022-09-18T13:14:31.760Z,18.95
2022-09-18T13:21:26.987Z,18.86
2022-09-18T13:28:18.095Z,18.90
2022-09-18T13:35:07.001Z,18.82
2022-09-18T13:41:58.826Z,18.80
2022-09-18T13:48:55.883Z,18.81
2022-09-18T13:55:53.069Z,18.78
2022-09-18T14:02:42.700Z,18.91
2022-09-18T14:09:50.316Z,19.08
2022-09-18T14:16:43.702Z,19.18
2022-09-18T14:24:41.039Z,19.20
2022-09-18T14:31:32.147Z,19.35
2022-09-18T14:38:29.623Z,19.43
2022-09-18T14:45:29.948Z,19.50
2022-09-18T14:52:24.193Z,19.57
2022-09-18T14:59:15.600Z,19.68
2022-09-18T15:06:15.451Z,19.68
2022-09-18T15:13:02.030Z,19.75
2022-09-18T15:20:02.376Z,19.82
2022-09-18T15:26:56.125Z,19.94
2022-09-18T15:33:51.758Z,20.01
2022-09-18T15:40:40.271Z,20.09
2022-09-18T15:47:38.472Z,20.06
2022-09-18T15:54:29.660Z,19.96
2022-09-18T16:01:39.929Z,19.75
2022-09-18T16:08:32.504Z,19.27
2022-09-18T16:15:25.596Z,19.19
2022-09-18T16:22:14.068Z,19.10
2022-09-18T16:29:06.320Z,19.03
2022-09-18T16:35:59.117Z,19.02
2022-09-18T16:42:44.453Z,19.05
2022-09-18T16:49:36.991Z,19.04
2022-09-18T16:56:29.803Z,19.12
2022-09-18T17:03:16.136Z,19.10
2022-09-18T17:10:04.344Z,19.11
2022-09-18T17:16:49.914Z,19.21
2022-09-18T17:23:36.697Z,19.17
2022-09-18T17:30:25.449Z,19.14
2022-09-18T17:37:10.895Z,19.18
2022-09-18T17:43:56.991Z,19.19
2022-09-18T17:50:45.103Z,19.22
2022-09-18T17:57:31.179Z,19.31
2022-09-18T18:04:17.933Z,19.38
2022-09-18T18:11:11.253Z,19.37
2022-09-18T18:17:56.771Z,19.40
2022-09-18T18:24:42.320Z,19.37
2022-09-18T18:31:31.628Z,19.32
2022-09-18T18:38:17.423Z,19.22
2022-09-18T18:52:04.502Z,18.88
2022-09-18T18:58:50.700Z,18.52
2022-09-18T19:05:36.556Z,18.83
2022-09-18T19:12:26.665Z,18.56
2022-09-18T19:19:12.166Z,18.79
2022-09-18T19:26:00.111Z,18.59
2022-09-18T19:32:49.104Z,18.55
2022-09-18T19:39:34.526Z,18.57
2022-09-18T19:46:30.034Z,18.24
2022-09-18T19:53:18.048Z,17.61
2022-09-18T20:00:03.368Z,17.51
2022-09-18T20:06:57.436Z,17.30
2022-09-18T20:13:45.416Z,17.24
2022-09-18T20:20:31.688Z,16.66
2022-09-18T20:27:17.162Z,16.84
2022-09-18T20:34:06.060Z,16.98
2022-09-18T20:41:06.660Z,17.02
2022-09-18T20:47:52.436Z,17.03
2022-09-18T20:54:41.635Z,17.03
2022-09-18T21:01:30.400Z,17.08
2022-09-18T21:08:16.210Z,17.21
2022-09-18T21:15:05.357Z,17.23
2022-09-18T21:21:51.786Z,17.14
2022-09-18T21:28:37.129Z,16.97
2022-09-18T21:35:25.666Z,16.72
2022-09-18T21:42:12.321Z,16.73
2022-09-18T21:48:57.652Z,16.85
2022-09-18T21:55:45.580Z,16.92
2022-09-18T22:02:30.918Z,17.04
2022-09-18T22:09:18.948Z,17.08
2022-09-18T22:16:07.622Z,17.11
2022-09-18T22:22:52.980Z,17.01
2022-09-18T22:29:41.171Z,16.49
2022-09-18T22:36:29.923Z,16.18
2022-09-18T22:43:15.624Z,15.85
2022-09-18T22:50:00.978Z,15.67
2022-09-18T22:56:52.312Z,15.40
2022-09-18T23:03:38.203Z,15.73
2022-09-18T23:10:23.650Z,15.60
2022-09-18T23:17:11.755Z,15.41
2022-09-18T23:23:58.663Z,15.41
2022-09-18T23:30:43.830Z,15.44
2022-09-18T23:37:32.076Z,15.08
2022-09-18T23:44:20.284Z,14.79
2022-09-18T23:51:08.289Z,14.68
2022-09-18T23:57:56.307Z,14.47
